Chickaloon, Alaska
Current Conditions -  °F | °C
As of 9:53 AM on Sunday 23 Nov 2014 (Local Time) from PAAQ Reporting Station
Overcast Overcast  
Wind Chill: 20°   Ceiling: 10000
Heat Index: 30°   Visibility: 10mi
Dew Point: 15°   Wind: 14mph
Humidity: 54%   Direction: 350°N
Pressure: 29.41"   Gusts: NA
Location:  61.7964°N, 148.462°W
Report Text: PAAQ 231853Z 35012KT 10SM FEW060 BKN100 OVC200 M01/M09 A2941 RMK AO2 SLP962 ACSL SE-SW T10111094
Loading
Personal Weather Stations






























Interactive Weather Map New forecast layout! Learn more

10-Day Weather Forecast

Advertisements
Track Severe Weather on mobile